createdAt,value
2023-02-27T00:02:06.925Z,99094.00
2023-02-27T00:04:42.475Z,99099.00
2023-02-27T00:07:11.003Z,99095.00
2023-02-27T00:09:50.448Z,99088.00
2023-02-27T00:12:23.753Z,99093.00
2023-02-27T00:14:54.068Z,99096.00
2023-02-27T00:17:28.739Z,99098.00
2023-02-27T00:20:01.285Z,99098.00
2023-02-27T00:22:32.415Z,99097.00
2023-02-27T00:25:00.985Z,99101.00
2023-02-27T00:27:34.798Z,99105.00
2023-02-27T00:30:12.132Z,99109.00
2023-02-27T00:32:40.691Z,99110.00
2023-02-27T00:35:15.956Z,99114.00
2023-02-27T00:37:52.471Z,99121.00
2023-02-27T00:40:26.535Z,99119.00
2023-02-27T00:42:55.939Z,99121.00
2023-02-27T00:45:26.736Z,99115.00
2023-02-27T00:47:55.355Z,99122.00
2023-02-27T00:50:25.638Z,99116.00
2023-02-27T00:53:06.063Z,99114.00
2023-02-27T00:55:37.408Z,99131.00
2023-02-27T00:58:11.058Z,99132.00
2023-02-27T01:00:39.642Z,99120.00
2023-02-27T01:03:27.982Z,99125.00
2023-02-27T01:06:09.587Z,99120.00
2023-02-27T01:08:40.501Z,99128.00
2023-02-27T01:11:09.086Z,99119.00
2023-02-27T01:13:44.440Z,99132.00
2023-02-27T01:16:18.824Z,99125.00
2023-02-27T01:18:51.109Z,99120.00
2023-02-27T01:21:23.919Z,99122.00
2023-02-27T01:23:55.157Z,99128.00
2023-02-27T01:26:26.538Z,99122.00
2023-02-27T01:28:57.647Z,99119.00
2023-02-27T01:31:35.364Z,99111.00
2023-02-27T01:34:05.745Z,99118.00
2023-02-27T01:36:35.658Z,99120.00
2023-02-27T01:39:11.265Z,99119.00
2023-02-27T01:41:45.413Z,99120.00
2023-02-27T01:44:16.610Z,99117.00
2023-02-27T01:46:54.772Z,99112.00
2023-02-27T01:49:24.476Z,99119.00
2023-02-27T01:52:02.140Z,99119.00
2023-02-27T01:54:31.530Z,99122.00
2023-02-27T01:57:10.924Z,99122.00
2023-02-27T01:59:47.342Z,99117.00
2023-02-27T02:02:23.017Z,99117.00
2023-02-27T02:04:53.416Z,99115.00
2023-02-27T02:07:26.631Z,99131.00
2023-02-27T02:10:02.125Z,99125.00
2023-02-27T02:12:34.193Z,99125.00
2023-02-27T02:15:02.704Z,99124.00
2023-02-27T02:17:36.761Z,99124.00
2023-02-27T02:20:37.324Z,99127.00
2023-02-27T02:23:46.132Z,99130.00
2023-02-27T02:26:33.231Z,99113.00
2023-02-27T02:29:45.392Z,99131.00
2023-02-27T02:32:51.507Z,99116.00
2023-02-27T02:35:46.044Z,99112.00
2023-02-27T02:38:56.962Z,99121.00
2023-02-27T02:41:29.794Z,99124.00
2023-02-27T02:44:08.120Z,99122.00
2023-02-27T02:46:50.191Z,99122.00
2023-02-27T02:49:25.860Z,99119.00
2023-02-27T02:51:57.688Z,99113.00
2023-02-27T02:54:36.384Z,99116.00
2023-02-27T02:57:13.605Z,99118.00
2023-02-27T02:59:45.736Z,99113.00
2023-02-27T03:02:18.724Z,99129.00
2023-02-27T03:04:54.981Z,99118.00
2023-02-27T03:07:32.902Z,99128.00
2023-02-27T03:10:08.011Z,99113.00
2023-02-27T03:12:41.203Z,99117.00
2023-02-27T03:15:24.813Z,99122.00
2023-02-27T03:18:01.253Z,99130.00
2023-02-27T03:20:32.236Z,99126.00
2023-02-27T03:23:07.735Z,99135.00
2023-02-27T03:25:37.704Z,99119.00
2023-02-27T03:28:07.460Z,99132.00
2023-02-27T03:30:37.250Z,99129.00
2023-02-27T03:33:08.738Z,99127.00
2023-02-27T03:35:45.317Z,99139.00
2023-02-27T03:38:19.111Z,99144.00
2023-02-27T03:41:01.628Z,99136.00
2023-02-27T03:43:32.573Z,99143.00
2023-02-27T03:46:03.038Z,99142.00
2023-02-27T03:48:35.248Z,99145.00
2023-02-27T03:51:03.947Z,99146.00
2023-02-27T03:53:41.540Z,99146.00
2023-02-27T03:56:12.987Z,99147.00
2023-02-27T03:58:44.709Z,99153.00
2023-02-27T04:01:15.628Z,99151.00
2023-02-27T04:03:46.899Z,99155.00
2023-02-27T04:06:32.516Z,99162.00
2023-02-27T04:09:03.122Z,99165.00
2023-02-27T04:11:44.215Z,99167.00
2023-02-27T04:14:23.387Z,99178.00
2023-02-27T04:17:02.886Z,99171.00
2023-02-27T04:19:40.948Z,99165.00
2023-02-27T04:22:15.210Z,99176.00
2023-02-27T04:24:48.030Z,99185.00
2023-02-27T04:27:20.667Z,99173.00
2023-02-27T04:29:52.790Z,99182.00
2023-02-27T04:32:25.578Z,99173.00
2023-02-27T04:34:56.219Z,99186.00
2023-02-27T04:37:25.932Z,99185.00
2023-02-27T04:39:55.609Z,99190.00
2023-02-27T04:42:26.038Z,99171.00
2023-02-27T04:44:55.396Z,99189.00
2023-02-27T04:47:23.472Z,99187.00
2023-02-27T04:49:52.845Z,99203.00
2023-02-27T04:52:22.476Z,99188.00
2023-02-27T04:54:52.190Z,99200.00
2023-02-27T04:57:21.551Z,99185.00
2023-02-27T04:59:53.580Z,99197.00
2023-02-27T05:02:25.068Z,99191.00
2023-02-27T05:04:54.504Z,99196.00
2023-02-27T05:07:27.079Z,99200.00
2023-02-27T05:09:55.866Z,99200.00
2023-02-27T05:12:26.178Z,99203.00
2023-02-27T05:14:57.255Z,99205.00
2023-02-27T05:17:28.039Z,99209.00
2023-02-27T05:19:56.050Z,99205.00
2023-02-27T05:22:27.298Z,99211.00
2023-02-27T05:24:59.282Z,99218.00
2023-02-27T05:27:32.274Z,99213.00
2023-02-27T05:30:04.111Z,99223.00
2023-02-27T05:32:35.414Z,99223.00
2023-02-27T05:35:10.448Z,99222.00
2023-02-27T05:37:40.777Z,99226.00
2023-02-27T05:40:10.036Z,99234.00
2023-02-27T05:42:39.594Z,99245.00
2023-02-27T05:45:10.892Z,99241.00
2023-02-27T05:47:40.838Z,99249.00
2023-02-27T05:50:10.398Z,99243.00
2023-02-27T05:52:38.424Z,99245.00
2023-02-27T05:55:08.363Z,99242.00
2023-02-27T05:57:38.155Z,99247.00
2023-02-27T06:00:10.142Z,99253.00
2023-02-27T06:02:38.221Z,99245.00
2023-02-27T06:05:07.555Z,99258.00
2023-02-27T06:07:35.648Z,99252.00
2023-02-27T06:10:03.778Z,99261.00
2023-02-27T06:12:31.846Z,99258.00
2023-02-27T06:14:59.896Z,99256.00
2023-02-27T06:17:29.341Z,99257.00
2023-02-27T06:19:57.452Z,99256.00
2023-02-27T06:22:25.562Z,99255.00
2023-02-27T06:24:54.485Z,99252.00
2023-02-27T06:27:22.611Z,99265.00
2023-02-27T06:29:50.677Z,99263.00
2023-02-27T06:32:18.813Z,99264.00
2023-02-27T06:34:48.438Z,99270.00
2023-02-27T06:37:16.526Z,99280.00
2023-02-27T06:39:44.576Z,99266.00
2023-02-27T06:42:12.615Z,99269.00
2023-02-27T06:44:40.702Z,99265.00
2023-02-27T06:47:08.773Z,99258.00
2023-02-27T06:49:36.865Z,99260.00
2023-02-27T06:52:06.286Z,99253.00
2023-02-27T06:54:34.365Z,99266.00
2023-02-27T06:57:02.451Z,99262.00
2023-02-27T06:59:30.510Z,99255.00
2023-02-27T07:01:59.202Z,99251.00
2023-02-27T07:04:27.271Z,99264.00
2023-02-27T07:07:35.850Z,99268.00
2023-02-27T07:09:44.800Z,99277.00
2023-02-27T07:12:12.838Z,99267.00
2023-02-27T07:14:40.866Z,99273.00
2023-02-27T07:17:08.902Z,99278.00
2023-02-27T07:19:37.535Z,99274.00
2023-02-27T07:22:05.593Z,99273.00
2023-02-27T07:24:33.657Z,99274.00
2023-02-27T07:27:03.106Z,99274.00
2023-02-27T07:29:31.184Z,99277.00
2023-02-27T07:31:59.246Z,99287.00
2023-02-27T07:34:27.284Z,99281.00
2023-02-27T07:36:55.335Z,99286.00
2023-02-27T07:39:23.359Z,99283.00
2023-02-27T07:41:51.415Z,99285.00
2023-02-27T07:44:20.923Z,99290.00
2023-02-27T07:46:49.100Z,99289.00
2023-02-27T07:49:17.155Z,99296.00
2023-02-27T07:51:45.374Z,99292.00
2023-02-27T07:54:13.386Z,99298.00
2023-02-27T07:56:41.453Z,99293.00
2023-02-27T07:59:09.709Z,99296.00
2023-02-27T08:01:39.096Z,99294.00
2023-02-27T08:04:07.127Z,99292.00
2023-02-27T08:06:35.403Z,99297.00
2023-02-27T08:09:03.969Z,99293.00
2023-02-27T08:11:32.007Z,99296.00
2023-02-27T08:14:01.488Z,99296.00
2023-02-27T08:16:30.833Z,99282.00
2023-02-27T08:19:00.683Z,99305.00
2023-02-27T08:21:29.293Z,99305.00
2023-02-27T08:23:57.641Z,99300.00
2023-02-27T08:26:26.015Z,99298.00
2023-02-27T08:28:54.326Z,99306.00
2023-02-27T08:31:22.363Z,99294.00
2023-02-27T08:33:58.025Z,99304.00
2023-02-27T08:36:37.209Z,99310.00
2023-02-27T08:39:05.371Z,99317.00
2023-02-27T08:41:33.452Z,99313.00
2023-02-27T08:44:01.526Z,99319.00
2023-02-27T08:46:29.817Z,99312.00
2023-02-27T08:48:58.098Z,99312.00
2023-02-27T08:51:26.512Z,99314.00
2023-02-27T08:53:58.942Z,99306.00
2023-02-27T08:56:27.513Z,99317.00
2023-02-27T08:58:55.960Z,99311.00
2023-02-27T09:01:27.305Z,99322.00
2023-02-27T09:03:55.586Z,99326.00
2023-02-27T09:06:25.879Z,99321.00
2023-02-27T09:08:54.311Z,99319.00
2023-02-27T09:11:23.965Z,99322.00
2023-02-27T09:13:52.814Z,99321.00
2023-02-27T09:16:20.874Z,99321.00
2023-02-27T09:18:49.079Z,99322.00
2023-02-27T09:21:17.427Z,99314.00
2023-02-27T09:23:45.452Z,99331.00
2023-02-27T09:26:13.546Z,99315.00
2023-02-27T09:28:42.927Z,99314.00
2023-02-27T09:31:11.194Z,99318.00
2023-02-27T09:33:39.420Z,99312.00
2023-02-27T09:36:08.018Z,99319.00
2023-02-27T09:38:36.788Z,99328.00
2023-02-27T09:41:05.310Z,99320.00
2023-02-27T09:43:36.512Z,99326.00
2023-02-27T09:46:06.051Z,99327.00
2023-02-27T09:48:36.055Z,99327.00
2023-02-27T09:51:04.306Z,99319.00
2023-02-27T09:53:35.657Z,99315.00
2023-02-27T09:56:07.614Z,99321.00
2023-02-27T09:58:46.926Z,99317.00
2023-02-27T10:01:20.273Z,99324.00
2023-02-27T10:04:11.122Z,99322.00
2023-02-27T10:06:41.146Z,99320.00
2023-02-27T10:09:15.770Z,99318.00
2023-02-27T10:11:54.551Z,99331.00
2023-02-27T10:14:38.066Z,99331.00
2023-02-27T10:17:11.300Z,99324.00
2023-02-27T10:22:06.476Z,99329.00
2023-02-27T10:24:36.786Z,99348.00
2023-02-27T10:27:06.022Z,99312.00
2023-02-27T10:29:36.577Z,99341.00
2023-02-27T10:32:05.977Z,99341.00
2023-02-27T10:34:35.597Z,99334.00
2023-02-27T10:37:04.506Z,99332.00
2023-02-27T10:39:33.236Z,99354.00
2023-02-27T10:42:04.430Z,99318.00
2023-02-27T10:44:33.342Z,99358.00
2023-02-27T10:47:02.457Z,99350.00
2023-02-27T10:49:32.147Z,99357.00
2023-02-27T10:52:10.605Z,99348.00
2023-02-27T10:54:38.686Z,99350.00
2023-02-27T10:57:08.681Z,99325.00
2023-02-27T10:59:37.518Z,99343.00
2023-02-27T11:02:06.187Z,99331.00
2023-02-27T11:04:35.139Z,99274.00
2023-02-27T11:07:05.520Z,99346.00
2023-02-27T11:09:35.007Z,99320.00
2023-02-27T11:12:14.529Z,99335.00
2023-02-27T11:14:52.794Z,99328.00
2023-02-27T11:17:26.050Z,99318.00
2023-02-27T11:19:54.114Z,99328.00
2023-02-27T11:22:24.263Z,99366.00
2023-02-27T11:24:53.981Z,99316.00
2023-02-27T11:27:26.623Z,99331.00
2023-02-27T11:29:59.089Z,99331.00
2023-02-27T11:32:27.757Z,99322.00
2023-02-27T11:34:55.939Z,99309.00
2023-02-27T11:37:27.624Z,99323.00
2023-02-27T11:40:02.404Z,99260.00
2023-02-27T11:42:32.217Z,99249.00
2023-02-27T11:45:02.199Z,99315.00
2023-02-27T11:47:32.492Z,99287.00
2023-02-27T11:50:28.550Z,99287.00
2023-02-27T11:53:00.323Z,99290.00
2023-02-27T11:55:29.754Z,99290.00
2023-02-27T11:58:02.157Z,99229.00
2023-02-27T12:00:33.215Z,99243.00
2023-02-27T12:03:03.920Z,99274.00
2023-02-27T12:05:33.100Z,99292.00
2023-02-27T12:08:02.566Z,99290.00
2023-02-27T12:10:33.209Z,99281.00
2023-02-27T12:13:03.276Z,99274.00
2023-02-27T12:15:32.645Z,99273.00
2023-02-27T12:18:10.212Z,99270.00
2023-02-27T12:20:40.021Z,99269.00
2023-02-27T12:23:16.665Z,99260.00
2023-02-27T12:25:52.628Z,99256.00
2023-02-27T12:28:29.223Z,99271.00
2023-02-27T12:31:05.462Z,99268.00
2023-02-27T12:33:39.114Z,99265.00
2023-02-27T12:36:11.189Z,99274.00
2023-02-27T12:38:39.289Z,99268.00
2023-02-27T12:41:23.390Z,99266.00
2023-02-27T12:43:53.204Z,99279.00
2023-02-27T12:46:32.991Z,99255.00
2023-02-27T12:49:12.890Z,99268.00
2023-02-27T12:51:45.262Z,99273.00
2023-02-27T12:54:26.661Z,99258.00
2023-02-27T12:57:19.864Z,99261.00
2023-02-27T12:59:57.872Z,99267.00
2023-02-27T13:02:42.035Z,99268.00
2023-02-27T13:05:16.956Z,99257.00
2023-02-27T13:07:48.737Z,99264.00
2023-02-27T13:10:19.392Z,99271.00
2023-02-27T13:12:51.548Z,99264.00
2023-02-27T13:15:20.920Z,99270.00
2023-02-27T13:17:49.725Z,99255.00
2023-02-27T13:20:31.114Z,99256.00
2023-02-27T13:23:02.472Z,99269.00
2023-02-27T13:25:30.609Z,99270.00
2023-02-27T13:28:01.528Z,99275.00
2023-02-27T13:30:31.646Z,99269.00
2023-02-27T13:33:02.687Z,99268.00
2023-02-27T13:35:36.895Z,99265.00
2023-02-27T13:38:31.695Z,99274.00
2023-02-27T13:40:59.977Z,99261.00
2023-02-27T13:43:46.361Z,99270.00
2023-02-27T13:46:23.019Z,99257.00
2023-02-27T13:48:52.291Z,99258.00
2023-02-27T13:51:42.742Z,99269.00
2023-02-27T13:54:20.606Z,99258.00
2023-02-27T13:56:49.174Z,99265.00
2023-02-27T13:59:22.220Z,99267.00
2023-02-27T14:01:52.531Z,99266.00
2023-02-27T14:04:20.671Z,99269.00
2023-02-27T14:06:48.886Z,99262.00
2023-02-27T14:09:19.982Z,99277.00
2023-02-27T14:11:53.921Z,99273.00
2023-02-27T14:14:45.123Z,99281.00
2023-02-27T14:17:14.042Z,99272.00
2023-02-27T14:19:49.440Z,99275.00
2023-02-27T14:23:13.601Z,99272.00
2023-02-27T14:25:43.132Z,99283.00
2023-02-27T14:28:17.856Z,99274.00
2023-02-27T14:30:53.167Z,99288.00
2023-02-27T14:33:39.004Z,99276.00
2023-02-27T14:36:09.899Z,99271.00
2023-02-27T14:38:38.593Z,99271.00
2023-02-27T14:41:16.100Z,99275.00
2023-02-27T14:43:45.117Z,99264.00
2023-02-27T14:46:19.472Z,99275.00
2023-02-27T14:48:47.561Z,99275.00
2023-02-27T14:51:16.949Z,99275.00
2023-02-27T14:53:44.984Z,99279.00
2023-02-27T14:56:19.046Z,99282.00
2023-02-27T14:58:55.528Z,99278.00
2023-02-27T15:01:28.700Z,99274.00
2023-02-27T15:03:58.831Z,99278.00
2023-02-27T15:06:31.201Z,99265.00
2023-02-27T15:08:59.280Z,99272.00
2023-02-27T15:11:27.645Z,99267.00
2023-02-27T15:13:59.238Z,99270.00
2023-02-27T15:16:35.433Z,99272.00
2023-02-27T15:19:11.358Z,99277.00
2023-02-27T15:21:40.600Z,99278.00
2023-02-27T15:24:09.886Z,99265.00
2023-02-27T15:26:39.941Z,99272.00
2023-02-27T15:29:08.792Z,99280.00
2023-02-27T15:31:39.129Z,99289.00
2023-02-27T15:34:07.209Z,99287.00
2023-02-27T15:36:35.804Z,99281.00
2023-02-27T15:39:06.252Z,99285.00
2023-02-27T15:41:34.461Z,99287.00
2023-02-27T15:44:02.998Z,99281.00
2023-02-27T15:46:31.038Z,99286.00
2023-02-27T15:49:00.528Z,99283.00
2023-02-27T15:51:29.347Z,99277.00
2023-02-27T15:53:59.897Z,99287.00
2023-02-27T15:56:29.079Z,99285.00
2023-02-27T15:59:00.637Z,99284.00
2023-02-27T16:01:30.742Z,99283.00
2023-02-27T16:04:01.294Z,99277.00
2023-02-27T16:06:31.898Z,99289.00
2023-02-27T16:09:01.784Z,99285.00
2023-02-27T16:11:31.204Z,99293.00
2023-02-27T16:13:59.630Z,99291.00
2023-02-27T16:16:31.625Z,99289.00
2023-02-27T16:19:02.708Z,99297.00
2023-02-27T16:21:31.608Z,99315.00
2023-02-27T16:24:29.456Z,99326.00
2023-02-27T16:26:57.834Z,99322.00
2023-02-27T16:29:30.472Z,99318.00
2023-02-27T16:31:58.802Z,99316.00
2023-02-27T16:34:44.235Z,99319.00
2023-02-27T16:37:19.105Z,99316.00
2023-02-27T16:39:47.177Z,99321.00
2023-02-27T16:42:17.472Z,99334.00
2023-02-27T16:44:45.758Z,99325.00
2023-02-27T16:47:13.875Z,99314.00
2023-02-27T16:49:44.544Z,99337.00
2023-02-27T16:52:12.802Z,99331.00
2023-02-27T16:54:41.157Z,99257.00
2023-02-27T16:57:10.729Z,99347.00
2023-02-27T16:59:40.495Z,99314.00
2023-02-27T17:02:11.998Z,99262.00
2023-02-27T17:04:44.675Z,99322.00
2023-02-27T17:07:16.820Z,99286.00
2023-02-27T17:09:45.114Z,99318.00
2023-02-27T17:12:13.447Z,99284.00
2023-02-27T17:14:41.804Z,99386.00
2023-02-27T17:17:11.069Z,99363.00
2023-02-27T17:19:39.186Z,99278.00
2023-02-27T17:22:07.761Z,99294.00
2023-02-27T17:24:38.105Z,99300.00
2023-02-27T17:27:07.755Z,99344.00
2023-02-27T17:33:10.514Z,99373.00
2023-02-27T17:35:38.665Z,99379.00
2023-02-27T17:38:07.466Z,99385.00
2023-02-27T17:40:39.368Z,99381.00
2023-02-27T17:43:07.456Z,99384.00
2023-02-27T17:45:35.494Z,99382.00
2023-02-27T17:48:03.921Z,99390.00
2023-02-27T17:50:32.464Z,99390.00
2023-02-27T17:53:00.490Z,99396.00
2023-02-27T17:55:28.588Z,99402.00
2023-02-27T17:57:58.031Z,99400.00
2023-02-27T18:00:26.105Z,99406.00
2023-02-27T18:02:54.642Z,99414.00
2023-02-27T18:05:22.794Z,99405.00
2023-02-27T18:07:50.826Z,99404.00
2023-02-27T18:10:19.087Z,99415.00
2023-02-27T18:12:47.355Z,99406.00
2023-02-27T18:15:16.982Z,99415.00
2023-02-27T18:17:45.330Z,99411.00
2023-02-27T18:20:13.939Z,99408.00
2023-02-27T18:22:42.098Z,99410.00
2023-02-27T18:25:10.550Z,99405.00
2023-02-27T18:27:38.795Z,99406.00
2023-02-27T18:30:07.876Z,99419.00
2023-02-27T18:32:37.316Z,99408.00
2023-02-27T18:35:05.882Z,99413.00
2023-02-27T18:37:35.086Z,99414.00
2023-02-27T18:40:03.460Z,99424.00
2023-02-27T18:42:31.537Z,99419.00
2023-02-27T18:44:59.608Z,99421.00
2023-02-27T18:47:30.270Z,99414.00
2023-02-27T18:49:59.867Z,99426.00
2023-02-27T18:52:28.865Z,99420.00
2023-02-27T18:54:56.911Z,99417.00
2023-02-27T18:57:25.008Z,99419.00
2023-02-27T18:59:53.092Z,99419.00
2023-02-27T19:02:21.176Z,99419.00
2023-02-27T19:04:49.515Z,99422.00
2023-02-27T19:07:19.764Z,99417.00
2023-02-27T19:09:48.060Z,99425.00
2023-02-27T19:12:16.095Z,99428.00
2023-02-27T19:14:44.141Z,99423.00
2023-02-27T19:17:12.199Z,99432.00
2023-02-27T19:19:40.772Z,99421.00
2023-02-27T19:22:08.845Z,99431.00
2023-02-27T19:24:38.257Z,99429.00
2023-02-27T19:27:07.573Z,99431.00
2023-02-27T19:29:35.681Z,99432.00
2023-02-27T19:32:03.752Z,99418.00
2023-02-27T19:34:31.931Z,99416.00
2023-02-27T19:37:00.372Z,99429.00
2023-02-27T19:39:28.641Z,99454.00
2023-02-27T19:41:58.157Z,99426.00
2023-02-27T19:44:26.573Z,99441.00
2023-02-27T19:46:54.665Z,99429.00
2023-02-27T19:49:22.733Z,99426.00
2023-02-27T19:51:50.807Z,99442.00
2023-02-27T19:54:18.898Z,99434.00
2023-02-27T19:56:46.928Z,99441.00
2023-02-27T19:59:17.800Z,99445.00
2023-02-27T20:01:45.818Z,99441.00
2023-02-27T20:04:14.086Z,99440.00
2023-02-27T20:06:43.244Z,99443.00
2023-02-27T20:09:13.280Z,99443.00
2023-02-27T20:11:41.414Z,99440.00
2023-02-27T20:14:09.475Z,99447.00
2023-02-27T20:16:38.895Z,99446.00
2023-02-27T20:19:07.303Z,99443.00
2023-02-27T20:21:35.409Z,99448.00
2023-02-27T20:24:03.517Z,99439.00
2023-02-27T20:26:32.318Z,99450.00
2023-02-27T20:29:01.302Z,99448.00
2023-02-27T20:31:31.279Z,99443.00
2023-02-27T20:34:01.328Z,99443.00
2023-02-27T20:36:29.751Z,99444.00
2023-02-27T20:38:58.051Z,99449.00
2023-02-27T20:41:29.067Z,99443.00
2023-02-27T20:43:57.780Z,99445.00
2023-02-27T20:46:26.615Z,99444.00
2023-02-27T20:48:56.387Z,99452.00
2023-02-27T20:51:26.724Z,99440.00
2023-02-27T20:53:56.259Z,99429.00
2023-02-27T20:56:25.558Z,99439.00
2023-02-27T20:58:53.578Z,99442.00
2023-02-27T21:01:22.062Z,99437.00
2023-02-27T21:03:50.965Z,99433.00
2023-02-27T21:06:19.832Z,99437.00
2023-02-27T21:08:51.245Z,99439.00
2023-02-27T21:11:20.607Z,99444.00
2023-02-27T21:13:50.059Z,99438.00
2023-02-27T21:16:19.054Z,99425.00
2023-02-27T21:18:50.285Z,99434.00
2023-02-27T21:21:19.239Z,99432.00
2023-02-27T21:23:47.264Z,99436.00
2023-02-27T21:26:19.134Z,99438.00
2023-02-27T21:28:52.164Z,99430.00
2023-02-27T21:31:22.293Z,99431.00
2023-02-27T21:33:50.603Z,99431.00
2023-02-27T21:36:18.656Z,99428.00
2023-02-27T21:38:47.057Z,99426.00
2023-02-27T21:41:15.074Z,99428.00
2023-02-27T21:43:44.471Z,99422.00
2023-02-27T21:46:13.132Z,99428.00
2023-02-27T21:48:41.385Z,99425.00
2023-02-27T21:51:09.403Z,99416.00
2023-02-27T21:53:40.442Z,99425.00
2023-02-27T21:56:09.568Z,99428.00
2023-02-27T21:58:37.669Z,99416.00
2023-02-27T22:01:15.520Z,99422.00
2023-02-27T22:03:43.676Z,99418.00
2023-02-27T22:06:11.875Z,99415.00
2023-02-27T22:08:40.043Z,99421.00
2023-02-27T22:11:08.076Z,99420.00
2023-02-27T22:13:36.225Z,99415.00
2023-02-27T22:16:05.314Z,99420.00
2023-02-27T22:18:34.774Z,99414.00
2023-02-27T22:21:02.974Z,99407.00
2023-02-27T22:23:30.982Z,99411.00
2023-02-27T22:26:02.384Z,99402.00
2023-02-27T22:28:30.637Z,99402.00
2023-02-27T22:31:07.606Z,99411.00
2023-02-27T22:33:40.630Z,99405.00
2023-02-27T22:36:09.303Z,99412.00
2023-02-27T22:38:37.349Z,99413.00
2023-02-27T22:41:07.040Z,99406.00
2023-02-27T22:43:35.095Z,99408.00
2023-02-27T22:46:03.770Z,99419.00
2023-02-27T22:48:31.762Z,99413.00
2023-02-27T22:51:03.163Z,99415.00
2023-02-27T22:53:33.077Z,99415.00
2023-02-27T22:56:01.165Z,99416.00
2023-02-27T22:58:29.640Z,99411.00
2023-02-27T23:00:57.700Z,99416.00
2023-02-27T23:03:25.735Z,99412.00
2023-02-27T23:05:53.784Z,99409.00
2023-02-27T23:08:23.160Z,99412.00
2023-02-27T23:10:51.172Z,99419.00
2023-02-27T23:13:19.217Z,99419.00
2023-02-27T23:15:47.279Z,99405.00
2023-02-27T23:18:15.267Z,99422.00
2023-02-27T23:20:43.296Z,99413.00
2023-02-27T23:23:11.300Z,99418.00
2023-02-27T23:25:40.674Z,99424.00
2023-02-27T23:28:08.712Z,99420.00
2023-02-27T23:30:36.709Z,99409.00
2023-02-27T23:33:04.752Z,99415.00
2023-02-27T23:35:32.912Z,99422.00
2023-02-27T23:38:00.970Z,99409.00
2023-02-27T23:40:29.043Z,99409.00
2023-02-27T23:43:15.649Z,99411.00
2023-02-27T23:45:43.698Z,99414.00
2023-02-27T23:48:11.774Z,99412.00
2023-02-27T23:50:41.053Z,99416.00
2023-02-27T23:53:10.405Z,99412.00
2023-02-27T23:55:38.736Z,99405.00
2023-02-27T23:58:08.812Z,99414.00
